Time;durP1;ratioP1;P1;durP2;ratioP2;P2;SDS_P1;SDS_P2;PMS_P1;PMS_P2;Temp;Humidity;BMP_temperature;BMP_pressure;BME280_temperature;BME280_humidity;BME280_pressure;Samples;Min_cycle;Max_cycle;Signal;HPM_P1;HPM_P2
2021/05/13 00:00:30;;;;;;;3.47;0.75;;;;;;;16.77;50.10;100604.75;5054969;28;20045;-65
2021/05/13 00:02:57;;;;;;;1.23;0.80;;;;;;;16.76;50.34;100597.63;5068771;28;20111;-65
2021/05/13 00:05:24;;;;;;;3.53;0.70;;;;;;;16.79;50.41;100586.94;5067802;28;20044;-66
2021/05/13 00:07:52;;;;;;;1.55;0.90;;;;;;;16.80;50.46;100591.38;5068575;28;20079;-65
2021/05/13 00:10:21;;;;;;;5.60;1.20;;;;;;;16.81;50.26;100588.69;5066701;28;20044;-65
2021/05/13 00:12:54;;;;;;;3.05;0.90;;;;;;;16.76;50.34;100581.63;5066593;28;20064;-65
2021/05/13 00:15:24;;;;;;;4.35;1.00;;;;;;;16.76;50.10;100584.31;5065105;28;20128;-65
2021/05/13 00:17:53;;;;;;;3.97;1.00;;;;;;;16.81;49.79;100586.00;5065656;28;20094;-65
2021/05/13 00:20:22;;;;;;;3.40;0.85;;;;;;;16.78;49.83;100577.19;5065202;28;20045;-66
2021/05/13 00:22:50;;;;;;;3.80;0.70;;;;;;;16.80;49.63;100570.06;5065703;28;20045;-65
2021/05/13 00:25:18;;;;;;;2.53;0.73;;;;;;;16.71;49.57;100563.94;5066563;28;20068;-66
2021/05/13 00:27:45;;;;;;;5.00;1.13;;;;;;;16.51;50.18;100557.03;5066468;28;20036;-65
2021/05/13 00:30:15;;;;;;;3.08;0.90;;;;;;;16.29;50.76;100559.06;5065355;28;20120;-65
2021/05/13 00:32:42;;;;;;;6.40;1.30;;;;;;;16.33;50.71;100553.72;5067214;28;20048;-66
2021/05/13 00:35:11;;;;;;;3.55;0.80;;;;;;;16.44;50.41;100550.03;5066913;28;20082;-65
2021/05/13 00:37:39;;;;;;;3.45;0.70;;;;;;;16.57;49.87;100551.63;5061468;28;20083;-65
2021/05/13 00:40:09;;;;;;;3.42;0.80;;;;;;;16.63;49.78;100544.47;5067376;28;20048;-66
2021/05/13 00:42:36;;;;;;;3.00;0.90;;;;;;;16.58;49.92;100538.31;5067079;28;20045;-66
2021/05/13 00:45:06;;;;;;;2.65;0.80;;;;;;;16.55;50.15;100533.00;5066640;28;20059;-66
2021/05/13 00:47:36;;;;;;;6.20;0.88;;;;;;;16.50;50.34;100532.19;5066822;28;20048;-66
2021/05/13 00:50:04;;;;;;;4.25;0.80;;;;;;;16.52;50.54;100534.84;5067486;28;20028;-65
2021/05/13 00:52:33;;;;;;;4.28;0.90;;;;;;;16.61;50.20;100532.94;5067624;28;20131;-65
2021/05/13 00:55:00;;;;;;;1.23;0.50;;;;;;;16.58;50.17;100522.31;5066721;28;20036;-66
2021/05/13 00:57:28;;;;;;;1.85;0.80;;;;;;;16.54;50.17;100530.38;5066230;28;20076;-66
2021/05/13 00:59:59;;;;;;;1.88;0.60;;;;;;;16.53;50.03;100529.50;5067941;28;20111;-65
2021/05/13 01:02:26;;;;;;;4.30;0.73;;;;;;;16.49;50.17;100532.19;5065695;28;20048;-65
2021/05/13 01:04:55;;;;;;;4.57;0.90;;;;;;;16.49;50.12;100527.75;5066910;28;20032;-65
2021/05/13 01:07:22;;;;;;;1.85;0.90;;;;;;;16.33;50.47;100535.06;5065463;28;20064;-65
2021/05/13 01:09:49;;;;;;;3.38;0.68;;;;;;;16.25;50.68;100533.38;5067378;28;20119;-65
2021/05/13 01:12:17;;;;;;;1.58;1.00;;;;;;;16.30;50.52;100535.06;5065983;28;20047;-66
2021/05/13 01:14:46;;;;;;;3.10;0.80;;;;;;;16.40;50.07;100533.19;5067281;28;20040;-65
2021/05/13 01:17:19;;;;;;;2.38;0.80;;;;;;;16.48;49.63;100536.63;5064148;28;20112;-66
2021/05/13 01:19:50;;;;;;;1.60;0.65;;;;;;;16.44;49.45;100545.56;5067230;28;20527;-66
2021/05/13 01:22:20;;;;;;;5.07;0.90;;;;;;;16.40;49.38;100537.66;5064456;28;20036;-66
2021/05/13 01:24:47;;;;;;;1.75;0.80;;;;;;;16.41;49.19;100542.09;5065647;28;20048;-65
2021/05/13 01:27:15;;;;;;;2.42;1.00;;;;;;;16.46;49.09;100549.13;5065280;28;20040;-65
2021/05/13 01:29:45;;;;;;;1.63;1.13;;;;;;;16.45;49.12;100551.78;5067610;28;20125;-65
2021/05/13 01:32:13;;;;;;;2.38;0.73;;;;;;;16.39;49.56;100550.09;5063622;28;20032;-66
2021/05/13 01:34:40;;;;;;;2.22;0.82;;;;;;;16.34;49.39;100551.94;5067016;28;20554;-65
2021/05/13 01:37:07;;;;;;;3.05;0.75;;;;;;;16.34;49.29;100544.78;5063505;28;20053;-65
2021/05/13 01:39:36;;;;;;;2.65;0.82;;;;;;;16.38;49.09;100536.78;5067467;28;20058;-65
2021/05/13 01:42:03;;;;;;;3.15;0.85;;;;;;;16.42;48.74;100550.03;5066971;28;20038;-65
2021/05/13 01:44:30;;;;;;;2.00;0.57;;;;;;;16.48;48.41;100541.97;5066710;28;20045;-66
2021/05/13 01:46:57;;;;;;;3.50;0.82;;;;;;;16.44;48.39;100544.69;5066987;28;20040;-65
2021/05/13 01:49:25;;;;;;;2.47;0.77;;;;;;;16.36;48.62;100547.44;5064656;28;20067;-65
2021/05/13 01:51:52;;;;;;;2.90;1.05;;;;;;;16.28;48.80;100550.19;5066565;28;20127;-65
2021/05/13 01:54:19;;;;;;;2.45;0.68;;;;;;;16.17;48.88;100556.53;5065406;28;20415;-65
2021/05/13 01:56:48;;;;;;;2.63;0.60;;;;;;;16.15;48.60;100558.31;5067516;28;20108;-65
2021/05/13 01:59:16;;;;;;;1.83;0.85;;;;;;;16.20;48.10;100564.50;5069008;28;20040;-65
2021/05/13 02:01:43;;;;;;;1.75;0.95;;;;;;;16.21;47.67;100563.63;5071536;28;20481;-65
2021/05/13 02:04:10;;;;;;;2.20;0.80;;;;;;;16.20;47.31;100565.41;5068954;28;20136;-66
2021/05/13 02:06:37;;;;;;;2.50;0.70;;;;;;;16.21;46.83;100566.28;5064680;28;20049;-66
2021/05/13 02:09:05;;;;;;;2.42;0.80;;;;;;;16.32;46.61;100561.72;5071313;28;20135;-65
2021/05/13 02:11:32;;;;;;;4.60;0.95;;;;;;;16.31;46.73;100560.81;5070701;28;20442;-65
2021/05/13 02:14:00;;;;;;;2.25;0.65;;;;;;;16.29;47.02;100564.38;5070419;28;20063;-65
2021/05/13 02:16:27;;;;;;;1.17;0.70;;;;;;;16.15;47.69;100558.31;5069777;27;20068;-65
2021/05/13 02:18:55;;;;;;;2.30;0.75;;;;;;;16.06;48.12;100564.66;5070781;28;20148;-65
2021/05/13 02:21:22;;;;;;;1.70;0.90;;;;;;;16.03;48.00;100564.66;5069652;28;20124;-66
2021/05/13 02:23:49;;;;;;;2.03;0.75;;;;;;;16.06;47.99;100567.31;5071118;28;20051;-65
2021/05/13 02:26:19;;;;;;;1.45;0.75;;;;;;;16.07;47.88;100573.53;5068913;28;20500;-65
2021/05/13 02:28:47;;;;;;;2.75;0.70;;;;;;;16.08;47.65;100584.13;5070641;28;20069;-65
2021/05/13 02:31:15;;;;;;;2.63;0.63;;;;;;;15.98;47.83;100587.78;5068757;28;20400;-64
2021/05/13 02:33:42;;;;;;;6.00;0.93;;;;;;;15.95;47.72;100593.13;5070561;28;20048;-65
2021/05/13 02:36:10;;;;;;;1.35;0.90;;;;;;;15.84;47.72;100601.22;5069245;28;20124;-65
2021/05/13 02:38:38;;;;;;;1.58;0.80;;;;;;;15.76;47.91;100605.72;5069209;28;20040;-66
2021/05/13 02:41:05;;;;;;;1.23;0.70;;;;;;;15.69;48.21;100616.44;5070069;28;20048;-66
2021/05/13 02:43:33;;;;;;;2.13;0.70;;;;;;;15.73;47.97;100621.75;5069027;28;20191;-65
2021/05/13 02:46:00;;;;;;;2.40;0.90;;;;;;;15.77;47.86;100619.91;5066452;28;20072;-65
2021/05/13 02:48:29;;;;;;;3.67;0.60;;;;;;;15.77;47.93;100631.44;5067556;28;20071;-66
2021/05/13 02:50:56;;;;;;;3.35;0.82;;;;;;;15.65;48.32;100642.19;5070339;28;20068;-65
2021/05/13 02:53:23;;;;;;;1.83;1.10;;;;;;;15.56;48.94;100639.59;5069032;28;20148;-65
2021/05/13 02:55:50;;;;;;;2.15;0.88;;;;;;;15.61;48.79;100640.47;5065877;28;20471;-65
2021/05/13 02:58:17;;;;;;;2.60;0.90;;;;;;;15.64;48.73;100645.75;5068190;28;20106;-65
2021/05/13 03:00:54;;;;;;;5.90;1.10;;;;;;;15.66;48.61;100637.75;5070120;28;20120;-65
2021/05/13 03:03:21;;;;;;;3.72;1.20;;;;;;;15.64;48.78;100639.53;5068672;28;20128;-65
2021/05/13 03:05:52;;;;;;;2.50;0.63;;;;;;;15.65;48.80;100636.88;5069926;28;20124;-65
2021/05/13 03:08:19;;;;;;;3.03;0.88;;;;;;;15.63;48.96;100643.09;5062737;28;20053;-65
2021/05/13 03:10:47;;;;;;;5.60;1.00;;;;;;;15.57;49.14;100638.69;5069892;28;20134;-66
2021/05/13 03:13:15;;;;;;;2.25;0.73;;;;;;;15.45;49.29;100649.38;5067090;28;20460;-65
2021/05/13 03:15:42;;;;;;;4.40;1.15;;;;;;;15.34;49.56;100652.13;5069553;28;20500;-65
2021/05/13 03:18:09;;;;;;;6.82;0.90;;;;;;;15.32;49.62;100653.00;5067055;28;20067;-66
2021/05/13 03:20:39;;;;;;;5.50;1.23;;;;;;;15.37;49.68;100656.53;5064454;28;20556;-64
2021/05/13 03:23:11;;;;;;;2.28;0.85;;;;;;;15.42;49.72;100665.38;5068014;28;20044;-65
2021/05/13 03:25:42;;;;;;;2.67;0.90;;;;;;;15.41;49.72;100655.63;5058845;28;20040;-65
2021/05/13 03:28:09;;;;;;;3.25;1.00;;;;;;;15.35;49.83;100667.19;5068097;28;20037;-65
2021/05/13 03:30:37;;;;;;;5.15;1.10;;;;;;;15.45;49.67;100666.22;5068930;28;20033;-65
2021/05/13 03:33:05;;;;;;;1.77;0.82;;;;;;;15.48;49.66;100673.31;5069152;28;20047;-65
2021/05/13 03:35:33;;;;;;;4.45;1.25;;;;;;;15.59;49.73;100679.50;5068716;28;20068;-65
2021/05/13 03:38:01;;;;;;;1.92;0.70;;;;;;;15.77;49.52;100682.03;5064343;28;20072;-65
2021/05/13 03:40:30;;;;;;;2.05;0.80;;;;;;;15.88;49.53;100669.50;5067850;28;20044;-64
2021/05/13 03:42:58;;;;;;;1.20;0.77;;;;;;;16.06;49.14;100665.84;5068956;28;20041;-64
2021/05/13 03:45:25;;;;;;;3.45;0.73;;;;;;;16.24;48.76;100659.47;5067082;28;20044;-65
2021/05/13 03:47:53;;;;;;;2.40;0.88;;;;;;;16.41;48.68;100661.97;5068427;28;20044;-65
2021/05/13 03:50:20;;;;;;;1.27;0.57;;;;;;;16.57;48.45;100658.25;5054191;28;20615;-65
2021/05/13 03:52:47;;;;;;;6.10;3.22;;;;;;;16.69;48.44;100664.34;5047159;28;20113;-65
2021/05/13 03:55:15;;;;;;;5.10;2.60;;;;;;;16.70;48.21;100666.13;5061656;28;20422;-65
2021/05/13 03:57:43;;;;;;;5.72;1.17;;;;;;;16.72;48.25;100663.44;5068333;28;20488;-65
2021/05/13 04:00:13;;;;;;;3.72;1.25;;;;;;;16.76;48.20;100673.16;5067146;28;20040;-65
2021/05/13 04:02:41;;;;;;;4.20;1.17;;;;;;;16.96;48.52;100657.81;5068688;28;20047;-65
2021/05/13 04:05:11;;;;;;;6.10;1.80;;;;;;;17.16;48.40;100665.56;5067062;28;20135;-65
2021/05/13 04:07:39;;;;;;;7.82;3.70;;;;;;;17.34;48.25;100656.44;5062429;28;20044;-64
2021/05/13 04:10:08;;;;;;;1.75;0.90;;;;;;;17.58;47.77;100655.22;5067538;28;20040;-65
2021/05/13 04:12:37;;;;;;;5.28;1.40;;;;;;;17.82;47.37;100655.75;5068175;28;20045;-65
2021/05/13 04:15:08;;;;;;;3.05;1.17;;;;;;;18.09;47.25;100662.44;5064588;28;20032;-65
2021/05/13 04:17:36;;;;;;;3.22;1.00;;;;;;;18.30;47.27;100662.09;5068377;28;20190;-65
2021/05/13 04:20:05;;;;;;;2.05;0.90;;;;;;;18.54;47.11;100651.84;5066526;28;20048;-65
2021/05/13 04:22:32;;;;;;;3.47;1.10;;;;;;;18.79;46.84;100655.84;5066835;28;20094;-65
2021/05/13 04:24:59;;;;;;;2.72;1.35;;;;;;;19.06;46.75;100663.31;5067524;28;20036;-65
2021/05/13 04:27:26;;;;;;;3.30;1.70;;;;;;;19.29;46.37;100668.19;5066796;28;20044;-65
2021/05/13 04:29:54;;;;;;;4.38;1.35;;;;;;;19.52;46.31;100674.84;5068039;28;20127;-65
2021/05/13 04:32:22;;;;;;;2.40;0.73;;;;;;;19.70;46.16;100679.78;5066203;28;20059;-65
2021/05/13 04:34:49;;;;;;;2.75;0.65;;;;;;;19.91;45.61;100673.91;5068440;28;20056;-65
2021/05/13 04:37:16;;;;;;;1.98;0.70;;;;;;;20.28;44.90;100664.03;5065250;28;20051;-65
2021/05/13 04:39:44;;;;;;;3.47;0.90;;;;;;;20.47;44.47;100668.97;5067447;28;20496;-66
2021/05/13 04:42:11;;;;;;;3.53;0.80;;;;;;;20.71;44.16;100670.09;5066546;28;20511;-65
2021/05/13 04:44:38;;;;;;;5.43;3.15;;;;;;;21.02;43.49;100673.69;5068421;28;20119;-65
2021/05/13 04:47:22;;;;;;;5.85;1.25;;;;;;;21.28;42.89;100687.25;5058101;28;20041;-66
2021/05/13 04:49:53;;;;;;;3.95;0.90;;;;;;;21.58;42.16;100692.66;5053936;28;20109;-64
2021/05/13 04:52:21;;;;;;;2.47;0.50;;;;;;;21.83;41.65;100688.25;5064911;28;20056;-65
2021/05/13 04:54:53;;;;;;;6.53;1.05;;;;;;;22.15;41.12;100688.13;5065218;28;20045;-65
2021/05/13 04:57:20;;;;;;;2.05;0.68;;;;;;;22.44;40.70;100688.97;5062123;28;20052;-65
2021/05/13 04:59:48;;;;;;;4.57;0.80;;;;;;;22.72;40.14;100684.34;5063108;28;20048;-66
2021/05/13 05:02:16;;;;;;;2.65;0.60;;;;;;;22.83;39.44;100684.03;5065020;28;20448;-66
2021/05/13 05:04:43;;;;;;;2.42;0.75;;;;;;;22.99;39.41;100686.09;5058090;28;20140;-66
2021/05/13 05:07:11;;;;;;;4.00;0.70;;;;;;;23.26;38.64;100694.97;5049956;28;20053;-66
2021/05/13 05:09:38;;;;;;;3.00;0.73;;;;;;;23.58;38.17;100693.75;5050787;28;20164;-65
2021/05/13 05:12:07;;;;;;;5.55;1.90;;;;;;;23.91;37.40;100691.53;5066729;28;20111;-65
2021/05/13 05:14:34;;;;;;;3.97;1.10;;;;;;;24.17;36.79;100687.75;5066951;28;20051;-66
2021/05/13 05:17:01;;;;;;;3.15;0.90;;;;;;;24.51;36.18;100687.25;5067131;28;20518;-66
2021/05/13 05:19:28;;;;;;;6.43;0.98;;;;;;;24.85;35.54;100681.25;5066136;28;20044;-65
2021/05/13 05:21:55;;;;;;;3.53;0.73;;;;;;;25.17;34.54;100679.84;5066953;28;20575;-65
2021/05/13 05:24:24;;;;;;;6.00;0.60;;;;;;;25.37;33.67;100685.19;5065038;28;20048;-66
2021/05/13 05:26:51;;;;;;;1.05;0.70;;;;;;;25.43;33.42;100687.63;5066606;28;20399;-66
2021/05/13 05:29:18;;;;;;;2.38;0.98;;;;;;;25.61;32.76;100688.59;5063720;28;20135;-66
2021/05/13 05:31:46;;;;;;;1.77;0.55;;;;;;;25.88;31.91;100689.97;5066129;28;20052;-66
2021/05/13 05:34:13;;;;;;;4.03;0.88;;;;;;;26.07;31.23;100682.69;5065749;28;20086;-66
2021/05/13 05:36:40;;;;;;;3.85;0.60;;;;;;;26.38;29.89;100689.34;5066208;28;20064;-66
2021/05/13 05:39:08;;;;;;;1.30;0.75;;;;;;;26.72;28.91;100696.56;5065510;28;20072;-66
2021/05/13 05:41:36;;;;;;;1.70;0.57;;;;;;;27.06;28.18;100698.41;5067741;28;20386;-66
2021/05/13 05:44:06;;;;;;;2.17;0.50;;;;;;;27.31;27.58;100699.72;5063774;28;20128;-65
2021/05/13 05:46:33;;;;;;;5.80;0.70;;;;;;;27.59;27.47;100700.94;5067419;28;20052;-66
2021/05/13 05:49:00;;;;;;;3.95;0.80;;;;;;;27.96;26.43;100692.44;5066301;28;20044;-65
2021/05/13 05:51:28;;;;;;;3.78;0.93;;;;;;;28.13;26.34;100692.38;5064981;28;20068;-66
2021/05/13 05:53:55;;;;;;;2.95;0.70;;;;;;;28.35;25.79;100699.31;5066193;28;20119;-66
2021/05/13 05:56:22;;;;;;;2.03;0.85;;;;;;;28.55;25.30;100704.41;5064395;28;20907;-66
2021/05/13 05:58:51;;;;;;;2.88;1.20;;;;;;;28.64;25.19;100700.25;5067223;28;20395;-66
2021/05/13 06:01:18;;;;;;;2.30;0.60;;;;;;;28.49;24.95;100696.59;5065821;28;20110;-66
2021/05/13 06:03:45;;;;;;;3.75;0.80;;;;;;;28.66;24.81;100701.06;5062261;28;20156;-66
2021/05/13 06:06:13;;;;;;;3.25;0.80;;;;;;;28.71;24.40;100702.50;5060580;28;20491;-66
2021/05/13 06:08:40;;;;;;;3.50;0.70;;;;;;;28.76;24.17;100707.69;5061150;28;20433;-67
2021/05/13 06:11:07;;;;;;;1.90;0.40;;;;;;;28.85;24.07;100708.03;5063582;28;20124;-66
2021/05/13 06:13:40;;;;;;;2.40;0.88;;;;;;;29.03;23.80;100710.56;5067348;28;20127;-66
2021/05/13 06:16:14;;;;;;;4.95;1.08;;;;;;;29.18;23.73;100702.34;5060500;28;20431;-66
2021/05/13 06:18:54;;;;;;;;;;;;;;;29.12;24.46;100705.44;5059625;28;20040;-66
2021/05/13 06:21:24;;;;;;;2.97;0.70;;;;;;;29.16;24.61;100701.56;5061655;28;19929;-66
2021/05/13 06:23:53;;;;;;;3.13;0.90;;;;;;;29.06;24.85;100694.09;5062973;28;20044;-66
2021/05/13 06:26:28;;;;;;;3.70;1.10;;;;;;;29.18;25.37;100699.63;5062096;28;20077;-66
2021/05/13 06:28:55;;;;;;;5.05;0.93;;;;;;;29.29;25.92;100702.53;5065927;28;20403;-66
2021/05/13 06:31:24;;;;;;;4.47;1.00;;;;;;;29.28;25.94;100705.34;5064523;28;20140;-67
2021/05/13 06:33:51;;;;;;;4.15;0.90;;;;;;;29.31;26.02;100703.31;5066162;28;20503;-66
2021/05/13 06:36:18;;;;;;;3.10;0.90;;;;;;;29.27;26.06;100703.63;5064028;28;20094;-66
2021/05/13 06:38:46;;;;;;;5.13;0.90;;;;;;;29.14;26.22;100703.53;5065846;28;20407;-66
2021/05/13 06:41:14;;;;;;;2.70;1.10;;;;;;;29.26;26.41;100708.19;5064284;28;20065;-66
2021/05/13 06:43:41;;;;;;;1.92;0.90;;;;;;;29.20;25.95;100703.13;5067573;28;20076;-67
2021/05/13 06:46:09;;;;;;;2.28;1.00;;;;;;;29.16;25.82;100698.84;5069236;28;20075;-65
2021/05/13 06:48:39;;;;;;;4.90;1.02;;;;;;;28.97;26.09;100702.78;5070631;28;20041;-65
2021/05/13 06:51:06;;;;;;;1.75;0.90;;;;;;;29.05;25.96;100703.19;5056030;28;20061;-65
2021/05/13 06:53:33;;;;;;;2.42;0.82;;;;;;;29.10;25.94;100704.66;5069280;28;20076;-65
2021/05/13 06:56:00;;;;;;;4.82;1.00;;;;;;;29.25;25.81;100708.28;5069221;28;20044;-65
2021/05/13 06:58:34;;;;;;;2.10;0.95;;;;;;;29.23;25.97;100704.78;5067015;28;20037;-65
2021/05/13 07:01:01;;;;;;;;;;;;;;;28.97;25.84;100708.22;5069193;28;20051;-66
2021/05/13 07:03:28;;;;;;;1.65;0.70;;;;;;;28.75;26.02;100712.25;5068340;28;19937;-65
2021/05/13 07:05:57;;;;;;;3.15;0.80;;;;;;;28.71;25.86;100715.22;5069479;28;20518;-65
2021/05/13 07:08:25;;;;;;;4.25;0.98;;;;;;;28.51;26.15;100711.88;5066586;28;20086;-65
2021/05/13 07:10:52;;;;;;;3.88;0.73;;;;;;;28.49;25.94;100713.78;5063968;28;20086;-64
2021/05/13 07:13:19;;;;;;;2.50;0.73;;;;;;;28.52;26.00;100723.59;5067758;28;20090;-65
2021/05/13 07:15:47;;;;;;;4.07;1.05;;;;;;;28.79;26.48;100716.56;5068370;28;20052;-65
2021/05/13 07:18:15;;;;;;;4.15;1.00;;;;;;;29.00;26.69;100721.66;5066481;28;20061;-65
2021/05/13 07:20:42;;;;;;;3.67;0.70;;;;;;;29.08;26.32;100714.75;5063707;28;20131;-65
2021/05/13 07:23:11;;;;;;;3.47;0.88;;;;;;;28.96;26.40;100718.22;5067868;28;20123;-65
2021/05/13 07:25:38;;;;;;;2.05;0.80;;;;;;;29.04;26.48;100721.34;5066546;28;20071;-65
2021/05/13 07:28:06;;;;;;;2.88;1.13;;;;;;;29.19;26.46;100714.97;5067726;28;20040;-65
2021/05/13 07:30:34;;;;;;;5.45;1.08;;;;;;;29.46;25.83;100712.41;5069169;28;20052;-65
2021/05/13 07:33:02;;;;;;;3.53;0.80;;;;;;;29.53;26.31;100715.59;5068223;28;20132;-65
2021/05/13 07:35:29;;;;;;;4.18;1.02;;;;;;;29.79;26.04;100719.38;5066549;28;20135;-65
2021/05/13 07:37:56;;;;;;;3.65;1.20;;;;;;;29.78;26.13;100718.50;5068438;28;20498;-65
2021/05/13 07:40:31;;;;;;;1.83;1.00;;;;;;;29.77;25.78;100726.75;5063962;28;20385;-64
2021/05/13 07:43:00;;;;;;;2.15;0.90;;;;;;;29.78;25.74;100731.22;5065761;28;20071;-65
2021/05/13 07:45:28;;;;;;;4.55;0.70;;;;;;;29.74;26.00;100738.69;5062991;28;20055;-65
2021/05/13 07:47:55;;;;;;;2.38;0.73;;;;;;;29.74;26.30;100741.41;5060863;28;20590;-65
2021/05/13 07:50:24;;;;;;;3.80;0.77;;;;;;;29.66;26.35;100738.34;5066678;28;20044;-66
2021/05/13 07:52:52;;;;;;;3.65;0.80;;;;;;;29.63;26.33;100733.09;5057917;28;20129;-65
2021/05/13 07:55:19;;;;;;;1.63;0.90;;;;;;;29.54;26.80;100747.25;5064561;28;20040;-65
2021/05/13 07:57:48;;;;;;;3.35;1.00;;;;;;;29.42;26.85;100740.75;5068028;28;20041;-65
2021/05/13 08:00:16;;;;;;;4.30;1.10;;;;;;;29.40;26.79;100745.44;5059943;28;20025;-66
2021/05/13 08:02:43;;;;;;;3.05;0.90;;;;;;;29.29;26.80;100737.91;5062378;28;20124;-66
2021/05/13 08:05:12;;;;;;;3.25;1.42;;;;;;;29.38;26.83;100744.66;5059476;28;20036;-65
2021/05/13 08:07:39;;;;;;;5.38;1.10;;;;;;;29.26;27.10;100746.28;5069857;28;20112;-66
2021/05/13 08:10:08;;;;;;;3.47;0.70;;;;;;;29.27;27.40;100739.88;5064960;28;20041;-66
2021/05/13 08:12:35;;;;;;;1.40;0.60;;;;;;;29.26;27.32;100743.53;5063611;28;20969;-66
2021/05/13 08:15:05;;;;;;;5.82;1.10;;;;;;;29.26;27.62;100759.88;5068631;28;20058;-66
2021/05/13 08:17:32;;;;;;;1.52;0.90;;;;;;;29.23;27.75;100756.44;5065768;28;20131;-66
2021/05/13 08:19:59;;;;;;;5.05;0.77;;;;;;;29.21;27.64;100756.53;5067907;28;20124;-66
2021/05/13 08:22:26;;;;;;;3.70;1.00;;;;;;;29.15;27.87;100756.03;5065830;28;20096;-66
2021/05/13 08:24:54;;;;;;;3.15;0.90;;;;;;;29.14;27.92;100759.75;5067536;28;20502;-65
2021/05/13 08:27:21;;;;;;;3.53;1.08;;;;;;;29.50;27.68;100756.59;5066891;28;20058;-65
2021/05/13 08:29:48;;;;;;;1.45;0.70;;;;;;;29.77;27.47;100746.69;5066418;28;20052;-65
2021/05/13 08:32:16;;;;;;;2.88;0.90;;;;;;;29.85;27.47;100748.91;5065025;28;20120;-66
2021/05/13 08:34:43;;;;;;;3.58;1.30;;;;;;;29.70;27.63;100753.50;5066600;28;20095;-66
2021/05/13 08:37:11;;;;;;;5.35;1.40;;;;;;;29.70;27.54;100759.81;5063877;28;20055;-66
2021/05/13 08:39:38;;;;;;;3.80;1.05;;;;;;;29.53;27.67;100762.75;5054318;28;20096;-66
2021/05/13 08:42:05;;;;;;;5.80;1.05;;;;;;;29.37;27.73;100766.50;5065857;28;20123;-66
2021/05/13 08:44:32;;;;;;;2.15;0.68;;;;;;;29.36;27.84;100753.88;5066261;28;20060;-66
2021/05/13 08:47:01;;;;;;;3.75;1.30;;;;;;;29.52;27.69;100768.28;5066063;28;20055;-65
2021/05/13 08:49:29;;;;;;;3.13;1.13;;;;;;;29.48;27.85;100764.84;5065672;28;20556;-66
2021/05/13 08:51:56;;;;;;;2.25;0.70;;;;;;;29.44;27.95;100770.59;5067723;28;20082;-65
2021/05/13 08:54:23;;;;;;;5.13;0.90;;;;;;;29.47;27.70;100775.84;5065672;28;20159;-66
2021/05/13 08:56:52;;;;;;;2.10;0.85;;;;;;;29.45;27.94;100772.34;5067882;28;20085;-66
2021/05/13 08:59:19;;;;;;;3.95;1.65;;;;;;;29.50;27.95;100768.38;5065663;28;20048;-66
2021/05/13 09:01:57;;;;;;;3.03;1.17;;;;;;;29.65;27.81;100770.13;5068057;28;20048;-66
2021/05/13 09:04:24;;;;;;;4.30;1.33;;;;;;;29.63;27.97;100771.19;5066376;28;20079;-66
2021/05/13 09:07:09;;;;;;;2.20;1.00;;;;;;;29.51;27.97;100777.41;5067626;28;20119;-66
2021/05/13 09:09:36;;;;;;;2.85;1.00;;;;;;;29.26;28.27;100783.47;5067233;28;20056;-66
2021/05/13 09:12:03;;;;;;;2.55;1.00;;;;;;;29.19;28.29;100777.53;5067903;28;20150;-65
2021/05/13 09:14:32;;;;;;;1.70;0.90;;;;;;;29.10;28.00;100786.25;5066225;28;20121;-66
2021/05/13 09:17:00;;;;;;;7.25;1.00;;;;;;;29.06;28.12;100779.25;5067236;28;20051;-66
2021/05/13 09:19:29;;;;;;;6.68;1.52;;;;;;;29.08;28.24;100780.00;5065923;28;20161;-66
2021/05/13 09:22:00;;;;;;;4.72;1.10;;;;;;;29.23;28.41;100773.66;5066801;28;20056;-65
2021/05/13 09:24:51;;;;;;;5.80;1.02;;;;;;;29.50;27.86;100781.09;5065279;28;20119;-65
2021/05/13 09:27:23;;;;;;;4.40;1.13;;;;;;;29.37;28.06;100780.97;5066323;28;20115;-66
2021/05/13 09:30:05;;;;;;;3.67;1.15;;;;;;;29.40;27.81;100785.38;5067406;28;20051;-65
2021/05/13 09:32:33;;;;;;;3.78;0.80;;;;;;;29.47;27.85;100773.13;5067459;28;20557;-66
2021/05/13 09:35:09;;;;;;;3.95;1.20;;;;;;;29.24;27.71;100774.53;5067430;28;20032;-66
2021/05/13 09:37:39;;;;;;;2.83;1.10;;;;;;;29.24;28.07;100769.97;5067132;28;20064;-66
2021/05/13 09:40:08;;;;;;;4.10;1.15;;;;;;;29.38;27.55;100779.13;5064749;28;20036;-65
2021/05/13 09:42:36;;;;;;;6.50;1.42;;;;;;;29.49;27.78;100779.34;5066700;28;20119;-66
2021/05/13 09:45:05;;;;;;;5.28;1.42;;;;;;;29.40;27.56;100763.59;5067180;28;20056;-66
2021/05/13 09:47:34;;;;;;;2.67;1.30;;;;;;;29.39;27.88;100764.56;5067109;28;20129;-66
2021/05/13 09:50:09;;;;;;;6.18;1.30;;;;;;;29.40;28.02;100767.22;5067118;28;20055;-66
2021/05/13 09:52:39;;;;;;;4.50;1.25;;;;;;;29.36;27.87;100767.47;5067684;28;20047;-66
2021/05/13 09:55:24;;;;;;;5.32;1.63;;;;;;;29.40;27.75;100766.31;5066731;28;20067;-65
2021/05/13 09:57:58;;;;;;;2.60;1.08;;;;;;;29.40;27.90;100774.50;5062551;28;20062;-66
2021/05/13 10:00:40;;;;;;;4.20;1.13;;;;;;;29.45;27.92;100761.47;5065508;28;20053;-66
2021/05/13 10:03:10;;;;;;;2.83;1.40;;;;;;;29.64;27.75;100765.66;5065788;28;20062;-66
2021/05/13 10:05:39;;;;;;;3.88;1.00;;;;;;;29.40;28.21;100767.22;5060754;28;20028;-66
2021/05/13 10:08:10;;;;;;;4.18;1.35;;;;;;;29.28;28.30;100762.47;5064653;28;20132;-65
2021/05/13 10:10:40;;;;;;;4.20;1.65;;;;;;;29.28;28.22;100760.63;5066434;28;20056;-65
2021/05/13 10:13:10;;;;;;;4.22;1.00;;;;;;;29.26;28.46;100757.16;5065923;28;20108;-65
2021/05/13 10:15:42;;;;;;;2.13;0.95;;;;;;;29.31;28.53;100759.56;5060026;28;20407;-65
2021/05/13 10:18:22;;;;;;;5.28;1.70;;;;;;;29.07;28.86;100758.38;5064741;28;20049;-65
2021/05/13 10:20:58;;;;;;;4.03;1.30;;;;;;;29.10;28.97;100753.59;5065618;28;20048;-65
2021/05/13 10:23:31;;;;;;;3.20;1.35;;;;;;;29.01;28.65;100759.63;5069663;28;20037;-65
2021/05/13 10:25:59;;;;;;;3.95;1.30;;;;;;;28.88;28.90;100753.19;5070682;28;20120;-65
2021/05/13 10:28:33;;;;;;;12.77;1.55;;;;;;;28.62;28.96;100759.28;5069266;28;20123;-65
2021/05/13 10:31:04;;;;;;;3.47;1.10;;;;;;;28.73;28.71;100754.06;5068769;28;20033;-65
2021/05/13 10:33:50;;;;;;;6.85;1.25;;;;;;;28.78;27.65;100757.41;5068749;28;20411;-65
2021/05/13 10:36:19;;;;;;;5.35;1.20;;;;;;;28.58;27.77;100757.69;5066576;28;20098;-65
2021/05/13 10:38:55;;;;;;;3.53;1.00;;;;;;;28.64;27.76;100751.88;5070126;28;20407;-65
2021/05/13 10:41:42;;;;;;;5.43;1.70;;;;;;;28.60;27.80;100766.63;5069386;28;20051;-65
2021/05/13 10:44:35;;;;;;;3.72;1.30;;;;;;;28.53;28.53;100774.28;5069181;28;20048;-65
2021/05/13 10:47:02;;;;;;;5.45;1.23;;;;;;;28.57;29.01;100777.66;5066757;28;20051;-65
2021/05/13 10:49:29;;;;;;;3.22;1.40;;;;;;;28.74;29.46;100785.72;5067965;28;20139;-65
2021/05/13 10:51:58;;;;;;;3.78;1.65;;;;;;;28.52;30.25;100778.81;5064848;28;20036;-66
2021/05/13 10:54:47;;;;;;;5.15;1.40;;;;;;;28.43;30.43;100787.50;5067753;28;20171;-65
2021/05/13 10:57:17;;;;;;;5.78;1.58;;;;;;;28.41;30.40;100791.28;5062872;28;20048;-66
2021/05/13 11:00:29;;;;;;;2.65;1.30;;;;;;;28.36;30.70;100791.53;5068694;28;20036;-65
2021/05/13 11:02:57;;;;;;;4.68;1.67;;;;;;;28.53;30.34;100776.97;4997839;28;20035;-65
2021/05/13 11:05:42;;;;;;;6.07;1.58;;;;;;;28.92;29.50;100781.94;5042948;28;20075;-65
2021/05/13 11:08:28;;;;;;;5.30;1.42;;;;;;;29.22;28.85;100790.94;5066137;28;20191;-66
2021/05/13 11:11:03;;;;;;;7.38;1.40;;;;;;;29.47;28.60;100789.47;5069060;28;20060;-66
2021/05/13 11:13:51;;;;;;;5.03;1.38;;;;;;;29.68;27.37;100786.25;5068409;28;20515;-66
2021/05/13 11:16:46;;;;;;;5.85;1.23;;;;;;;29.67;26.42;100789.06;5066364;28;20098;-66
2021/05/13 11:19:24;;;;;;;6.57;1.55;;;;;;;29.86;26.43;100786.94;5064053;28;20057;-65
2021/05/13 11:22:06;;;;;;;5.32;1.33;;;;;;;30.02;25.92;100803.19;5065927;28;20048;-66
2021/05/13 11:24:39;;;;;;;7.00;1.27;;;;;;;30.05;25.57;100792.97;5065045;28;20056;-65
2021/05/13 11:27:11;;;;;;;3.63;1.05;;;;;;;30.01;26.09;100804.16;5065881;28;20373;-66
2021/05/13 11:29:53;;;;;;;7.28;1.45;;;;;;;30.36;26.12;100793.69;5066746;28;20044;-65
2021/05/13 11:32:22;;;;;;;6.68;1.80;;;;;;;30.46;26.03;100803.88;5067345;28;20048;-66
2021/05/13 11:34:49;;;;;;;5.00;1.20;;;;;;;30.48;27.17;100801.91;5067034;28;20041;-66
2021/05/13 11:37:36;;;;;;;3.97;1.42;;;;;;;30.37;27.87;100804.50;5067396;28;20040;-66